sensor_id;sensor_type;location;lat;lon;timestamp;pressure;altitude;pressure_sealevel;temperature
64916;BMP280;51427;-27.442;153.014;2023-03-20T00:02:02;101960.69;;;30.33
64916;BMP280;51427;-27.442;153.014;2023-03-20T00:04:30;101950.47;;;31.25
64916;BMP280;51427;-27.442;153.014;2023-03-20T00:06:58;101950.63;;;30.93
64916;BMP280;51427;-27.442;153.014;2023-03-20T00:09:26;101957.41;;;29.17
64916;BMP280;51427;-27.442;153.014;2023-03-20T00:11:54;101946.75;;;30.18
64916;BMP280;51427;-27.442;153.014;2023-03-20T00:14:22;101941.28;;;29.89
64916;BMP280;51427;-27.442;153.014;2023-03-20T00:16:51;101935.84;;;29.67
64916;BMP280;51427;-27.442;153.014;2023-03-20T00:19:22;101951.63;;;30.37
64916;BMP280;51427;-27.442;153.014;2023-03-20T00:21:51;101939.03;;;30.58
64916;BMP280;51427;-27.442;153.014;2023-03-20T00:24:19;101941.88;;;30.78
64916;BMP280;51427;-27.442;153.014;2023-03-20T00:26:48;101948.66;;;29.84
64916;BMP280;51427;-27.442;153.014;2023-03-20T00:29:25;101932.56;;;30.14
64916;BMP280;51427;-27.442;153.014;2023-03-20T00:31:54;101938.06;;;30.27
64916;BMP280;51427;-27.442;153.014;2023-03-20T00:34:24;101916.34;;;30.91
64916;BMP280;51427;-27.442;153.014;2023-03-20T00:36:53;101922.06;;;31.17
64916;BMP280;51427;-27.442;153.014;2023-03-20T00:39:22;101917.34;;;30.82
64916;BMP280;51427;-27.442;153.014;2023-03-20T00:42:04;101917.47;;;31.65
64916;BMP280;51427;-27.442;153.014;2023-03-20T00:44:43;101899.63;;;31.70
64916;BMP280;51427;-27.442;153.014;2023-03-20T00:47:22;101904.75;;;30.71
64916;BMP280;51427;-27.442;153.014;2023-03-20T00:49:52;101896.34;;;30.69
64916;BMP280;51427;-27.442;153.014;2023-03-20T00:52:22;101907.34;;;30.63
64916;BMP280;51427;-27.442;153.014;2023-03-20T00:54:50;101901.34;;;30.71
64916;BMP280;51427;-27.442;153.014;2023-03-20T00:57:19;101902.56;;;30.13
64916;BMP280;51427;-27.442;153.014;2023-03-20T00:59:54;101899.47;;;30.17
64916;BMP280;51427;-27.442;153.014;2023-03-20T01:02:26;101900.88;;;29.65
64916;BMP280;51427;-27.442;153.014;2023-03-20T01:04:55;101908.47;;;30.69
64916;BMP280;51427;-27.442;153.014;2023-03-20T01:07:23;101903.34;;;31.15
64916;BMP280;51427;-27.442;153.014;2023-03-20T01:09:50;101901.28;;;31.33
64916;BMP280;51427;-27.442;153.014;2023-03-20T01:12:18;101889.78;;;31.88
64916;BMP280;51427;-27.442;153.014;2023-03-20T01:14:50;101890.69;;;30.74
64916;BMP280;51427;-27.442;153.014;2023-03-20T01:17:21;101892.41;;;31.27
64916;BMP280;51427;-27.442;153.014;2023-03-20T01:19:49;101886.31;;;31.58
64916;BMP280;51427;-27.442;153.014;2023-03-20T01:22:17;101890.63;;;30.44
64916;BMP280;51427;-27.442;153.014;2023-03-20T01:24:45;101887.69;;;30.23
64916;BMP280;51427;-27.442;153.014;2023-03-20T01:27:18;101876.53;;;31.08
64916;BMP280;51427;-27.442;153.014;2023-03-20T01:29:46;101880.25;;;30.52
64916;BMP280;51427;-27.442;153.014;2023-03-20T01:32:18;101873.56;;;30.81
64916;BMP280;51427;-27.442;153.014;2023-03-20T01:34:46;101870.13;;;30.88
64916;BMP280;51427;-27.442;153.014;2023-03-20T01:37:22;101865.03;;;31.71
64916;BMP280;51427;-27.442;153.014;2023-03-20T01:39:50;101858.34;;;32.49
64916;BMP280;51427;-27.442;153.014;2023-03-20T01:42:18;101851.28;;;32.58
64916;BMP280;51427;-27.442;153.014;2023-03-20T01:44:46;101861.34;;;31.43
64916;BMP280;51427;-27.442;153.014;2023-03-20T01:47:21;101850.47;;;32.43
64916;BMP280;51427;-27.442;153.014;2023-03-20T01:52:42;101837.91;;;31.81
64916;BMP280;51427;-27.442;153.014;2023-03-20T01:55:10;101845.59;;;31.53
64916;BMP280;51427;-27.442;153.014;2023-03-20T01:57:38;101843.91;;;31.59
64916;BMP280;51427;-27.442;153.014;2023-03-20T02:00:09;101835.19;;;31.97
64916;BMP280;51427;-27.442;153.014;2023-03-20T02:02:39;101830.25;;;32.10
64916;BMP280;51427;-27.442;153.014;2023-03-20T02:05:13;101821.59;;;32.46
64916;BMP280;51427;-27.442;153.014;2023-03-20T02:07:46;101824.84;;;31.75
64916;BMP280;51427;-27.442;153.014;2023-03-20T02:10:16;101828.16;;;30.86
64916;BMP280;51427;-27.442;153.014;2023-03-20T02:12:45;101814.78;;;32.16
64916;BMP280;51427;-27.442;153.014;2023-03-20T02:15:14;101806.84;;;32.75
64916;BMP280;51427;-27.442;153.014;2023-03-20T02:17:43;101807.44;;;31.83
64916;BMP280;51427;-27.442;153.014;2023-03-20T02:32:26;101799.16;;;30.61
64916;BMP280;51427;-27.442;153.014;2023-03-20T02:40:43;101795.28;;;29.79
64916;BMP280;51427;-27.442;153.014;2023-03-20T02:46:03;101781.66;;;30.16
64916;BMP280;51427;-27.442;153.014;2023-03-20T02:54:43;101785.50;;;30.74
64916;BMP280;51427;-27.442;153.014;2023-03-20T03:02:56;101777.22;;;30.57
64916;BMP280;51427;-27.442;153.014;2023-03-20T03:05:31;101767.19;;;29.84
64916;BMP280;51427;-27.442;153.014;2023-03-20T03:08:02;101770.72;;;29.75
64916;BMP280;51427;-27.442;153.014;2023-03-20T03:10:35;101775.00;;;30.30
64916;BMP280;51427;-27.442;153.014;2023-03-20T03:13:05;101774.56;;;30.26
64916;BMP280;51427;-27.442;153.014;2023-03-20T03:15:43;101765.38;;;31.00
64916;BMP280;51427;-27.442;153.014;2023-03-20T03:18:18;101766.28;;;31.07
64916;BMP280;51427;-27.442;153.014;2023-03-20T03:20:49;101750.97;;;31.28
64916;BMP280;51427;-27.442;153.014;2023-03-20T03:23:39;101766.13;;;30.78
64916;BMP280;51427;-27.442;153.014;2023-03-20T03:26:08;101764.75;;;29.98
64916;BMP280;51427;-27.442;153.014;2023-03-20T03:28:48;101755.47;;;30.27
64916;BMP280;51427;-27.442;153.014;2023-03-20T03:31:17;101751.13;;;30.74
64916;BMP280;51427;-27.442;153.014;2023-03-20T03:33:48;101747.75;;;30.19
64916;BMP280;51427;-27.442;153.014;2023-03-20T03:39:40;101746.91;;;30.73
64916;BMP280;51427;-27.442;153.014;2023-03-20T03:42:24;101746.31;;;30.33
64916;BMP280;51427;-27.442;153.014;2023-03-20T03:45:09;101736.66;;;31.17
64916;BMP280;51427;-27.442;153.014;2023-03-20T03:47:46;101739.50;;;31.67
64916;BMP280;51427;-27.442;153.014;2023-03-20T03:52:49;101733.50;;;30.47
64916;BMP280;51427;-27.442;153.014;2023-03-20T03:55:21;101732.03;;;30.45
64916;BMP280;51427;-27.442;153.014;2023-03-20T03:58:21;101726.56;;;30.40
64916;BMP280;51427;-27.442;153.014;2023-03-20T04:00:52;101731.91;;;30.30
64916;BMP280;51427;-27.442;153.014;2023-03-20T04:03:23;101729.75;;;30.80
64916;BMP280;51427;-27.442;153.014;2023-03-20T04:05:55;101717.19;;;31.66
64916;BMP280;51427;-27.442;153.014;2023-03-20T04:08:24;101728.94;;;31.32
64916;BMP280;51427;-27.442;153.014;2023-03-20T04:10:52;101714.94;;;31.04
64916;BMP280;51427;-27.442;153.014;2023-03-20T04:13:19;101726.38;;;30.79
64916;BMP280;51427;-27.442;153.014;2023-03-20T04:15:47;101711.59;;;30.96
64916;BMP280;51427;-27.442;153.014;2023-03-20T04:18:16;101708.03;;;30.97
64916;BMP280;51427;-27.442;153.014;2023-03-20T04:20:45;101707.44;;;30.87
64916;BMP280;51427;-27.442;153.014;2023-03-20T04:23:13;101704.66;;;30.66
64916;BMP280;51427;-27.442;153.014;2023-03-20T04:25:41;101701.31;;;31.10
64916;BMP280;51427;-27.442;153.014;2023-03-20T04:28:09;101702.88;;;30.97
64916;BMP280;51427;-27.442;153.014;2023-03-20T04:30:37;101689.00;;;30.90
64916;BMP280;51427;-27.442;153.014;2023-03-20T04:33:05;101693.75;;;30.78
64916;BMP280;51427;-27.442;153.014;2023-03-20T04:35:32;101700.88;;;30.76
64916;BMP280;51427;-27.442;153.014;2023-03-20T04:38:00;101693.03;;;30.92
64916;BMP280;51427;-27.442;153.014;2023-03-20T04:40:28;101693.19;;;30.68
64916;BMP280;51427;-27.442;153.014;2023-03-20T04:42:57;101687.69;;;31.16
64916;BMP280;51427;-27.442;153.014;2023-03-20T04:45:24;101694.75;;;31.22
64916;BMP280;51427;-27.442;153.014;2023-03-20T04:47:52;101690.50;;;31.07
64916;BMP280;51427;-27.442;153.014;2023-03-20T04:50:20;101696.16;;;30.58
64916;BMP280;51427;-27.442;153.014;2023-03-20T04:52:47;101697.06;;;30.64
64916;BMP280;51427;-27.442;153.014;2023-03-20T04:55:15;101692.28;;;30.54
64916;BMP280;51427;-27.442;153.014;2023-03-20T04:57:42;101691.13;;;30.18
64916;BMP280;51427;-27.442;153.014;2023-03-20T05:00:10;101700.69;;;30.48
64916;BMP280;51427;-27.442;153.014;2023-03-20T05:02:38;101696.59;;;30.23
64916;BMP280;51427;-27.442;153.014;2023-03-20T05:05:06;101697.16;;;30.49
64916;BMP280;51427;-27.442;153.014;2023-03-20T05:07:34;101699.94;;;30.31
64916;BMP280;51427;-27.442;153.014;2023-03-20T05:10:03;101688.63;;;30.40
64916;BMP280;51427;-27.442;153.014;2023-03-20T05:12:31;101701.88;;;29.91
64916;BMP280;51427;-27.442;153.014;2023-03-20T05:14:58;101693.03;;;30.24
64916;BMP280;51427;-27.442;153.014;2023-03-20T05:17:26;101695.44;;;29.56
64916;BMP280;51427;-27.442;153.014;2023-03-20T05:19:54;101693.66;;;29.80
64916;BMP280;51427;-27.442;153.014;2023-03-20T05:22:23;101691.56;;;29.75
64916;BMP280;51427;-27.442;153.014;2023-03-20T05:24:51;101697.50;;;29.92
64916;BMP280;51427;-27.442;153.014;2023-03-20T05:27:18;101700.75;;;29.70
64916;BMP280;51427;-27.442;153.014;2023-03-20T05:29:46;101695.47;;;29.32
64916;BMP280;51427;-27.442;153.014;2023-03-20T05:32:14;101711.72;;;29.56
64916;BMP280;51427;-27.442;153.014;2023-03-20T05:34:41;101696.09;;;29.81
64916;BMP280;51427;-27.442;153.014;2023-03-20T05:37:09;101698.81;;;29.64
64916;BMP280;51427;-27.442;153.014;2023-03-20T05:39:37;101716.41;;;29.53
64916;BMP280;51427;-27.442;153.014;2023-03-20T05:42:05;101704.47;;;29.60
64916;BMP280;51427;-27.442;153.014;2023-03-20T05:44:32;101712.38;;;29.50
64916;BMP280;51427;-27.442;153.014;2023-03-20T05:47:00;101720.28;;;29.49
64916;BMP280;51427;-27.442;153.014;2023-03-20T05:49:31;101719.16;;;29.35
64916;BMP280;51427;-27.442;153.014;2023-03-20T05:51:59;101716.88;;;29.72
64916;BMP280;51427;-27.442;153.014;2023-03-20T05:54:26;101722.19;;;29.47
64916;BMP280;51427;-27.442;153.014;2023-03-20T05:56:54;101715.13;;;29.65
64916;BMP280;51427;-27.442;153.014;2023-03-20T05:59:21;101724.78;;;29.47
64916;BMP280;51427;-27.442;153.014;2023-03-20T06:01:48;101738.97;;;29.43
64916;BMP280;51427;-27.442;153.014;2023-03-20T06:04:15;101741.16;;;28.98
64916;BMP280;51427;-27.442;153.014;2023-03-20T06:06:43;101723.66;;;29.25
64916;BMP280;51427;-27.442;153.014;2023-03-20T06:09:10;101728.59;;;29.03
64916;BMP280;51427;-27.442;153.014;2023-03-20T06:11:37;101732.47;;;29.15
64916;BMP280;51427;-27.442;153.014;2023-03-20T06:14:04;101723.91;;;28.99
64916;BMP280;51427;-27.442;153.014;2023-03-20T06:16:32;101739.88;;;28.94
64916;BMP280;51427;-27.442;153.014;2023-03-20T06:18:59;101733.91;;;29.10
64916;BMP280;51427;-27.442;153.014;2023-03-20T06:21:27;101738.56;;;28.90
64916;BMP280;51427;-27.442;153.014;2023-03-20T06:23:54;101741.78;;;28.92
64916;BMP280;51427;-27.442;153.014;2023-03-20T06:26:23;101743.06;;;28.80
64916;BMP280;51427;-27.442;153.014;2023-03-20T06:28:50;101728.09;;;28.84
64916;BMP280;51427;-27.442;153.014;2023-03-20T06:31:17;101747.47;;;28.63
64916;BMP280;51427;-27.442;153.014;2023-03-20T06:33:45;101750.34;;;28.60
64916;BMP280;51427;-27.442;153.014;2023-03-20T06:36:12;101749.22;;;28.54
64916;BMP280;51427;-27.442;153.014;2023-03-20T06:38:40;101746.41;;;28.73
64916;BMP280;51427;-27.442;153.014;2023-03-20T06:41:07;101752.91;;;28.60
64916;BMP280;51427;-27.442;153.014;2023-03-20T06:43:34;101758.59;;;28.30
64916;BMP280;51427;-27.442;153.014;2023-03-20T06:46:02;101759.28;;;28.40
64916;BMP280;51427;-27.442;153.014;2023-03-20T06:48:30;101767.31;;;28.37
64916;BMP280;51427;-27.442;153.014;2023-03-20T06:50:57;101774.34;;;28.27
64916;BMP280;51427;-27.442;153.014;2023-03-20T06:53:24;101775.63;;;28.23
64916;BMP280;51427;-27.442;153.014;2023-03-20T06:55:52;101775.47;;;28.25
64916;BMP280;51427;-27.442;153.014;2023-03-20T06:58:20;101781.59;;;28.06
64916;BMP280;51427;-27.442;153.014;2023-03-20T07:00:47;101776.44;;;28.06
64916;BMP280;51427;-27.442;153.014;2023-03-20T07:03:14;101776.44;;;28.06
64916;BMP280;51427;-27.442;153.014;2023-03-20T07:05:42;101779.97;;;28.05
64916;BMP280;51427;-27.442;153.014;2023-03-20T07:08:10;101775.94;;;28.03
64916;BMP280;51427;-27.442;153.014;2023-03-20T07:10:37;101791.38;;;28.03
64916;BMP280;51427;-27.442;153.014;2023-03-20T07:13:04;101792.06;;;27.87
64916;BMP280;51427;-27.442;153.014;2023-03-20T07:15:32;101792.28;;;27.94
64916;BMP280;51427;-27.442;153.014;2023-03-20T07:17:59;101794.19;;;27.75
64916;BMP280;51427;-27.442;153.014;2023-03-20T07:20:26;101804.47;;;27.75
64916;BMP280;51427;-27.442;153.014;2023-03-20T07:22:53;101810.69;;;27.64
64916;BMP280;51427;-27.442;153.014;2023-03-20T07:25:21;101809.84;;;27.64
64916;BMP280;51427;-27.442;153.014;2023-03-20T07:27:48;101817.00;;;27.52
64916;BMP280;51427;-27.442;153.014;2023-03-20T07:30:18;101826.84;;;27.57
64916;BMP280;51427;-27.442;153.014;2023-03-20T07:32:45;101819.72;;;27.51
64916;BMP280;51427;-27.442;153.014;2023-03-20T07:35:13;101828.59;;;27.39
64916;BMP280;51427;-27.442;153.014;2023-03-20T07:37:41;101831.59;;;27.35
64916;BMP280;51427;-27.442;153.014;2023-03-20T07:40:09;101835.91;;;27.34
64916;BMP280;51427;-27.442;153.014;2023-03-20T07:42:36;101836.03;;;27.33
64916;BMP280;51427;-27.442;153.014;2023-03-20T07:45:04;101847.44;;;27.30
64916;BMP280;51427;-27.442;153.014;2023-03-20T07:47:32;101841.78;;;27.27
64916;BMP280;51427;-27.442;153.014;2023-03-20T07:49:59;101845.00;;;27.29
64916;BMP280;51427;-27.442;153.014;2023-03-20T07:52:26;101843.66;;;27.25
64916;BMP280;51427;-27.442;153.014;2023-03-20T07:54:53;101851.53;;;27.23
64916;BMP280;51427;-27.442;153.014;2023-03-20T07:57:21;101862.09;;;27.20
64916;BMP280;51427;-27.442;153.014;2023-03-20T07:59:48;101861.56;;;27.17
64916;BMP280;51427;-27.442;153.014;2023-03-20T08:02:16;101859.16;;;27.15
64916;BMP280;51427;-27.442;153.014;2023-03-20T08:04:44;101860.25;;;27.13
64916;BMP280;51427;-27.442;153.014;2023-03-20T08:07:12;101872.19;;;27.04
64916;BMP280;51427;-27.442;153.014;2023-03-20T08:09:39;101875.19;;;27.00
64916;BMP280;51427;-27.442;153.014;2023-03-20T08:12:07;101875.03;;;27.01
64916;BMP280;51427;-27.442;153.014;2023-03-20T08:14:34;101877.59;;;27.01
64916;BMP280;51427;-27.442;153.014;2023-03-20T08:17:04;101880.47;;;26.98
64916;BMP280;51427;-27.442;153.014;2023-03-20T08:19:31;101881.56;;;26.96
64916;BMP280;51427;-27.442;153.014;2023-03-20T08:21:58;101873.19;;;26.94
64916;BMP280;51427;-27.442;153.014;2023-03-20T08:24:25;101875.91;;;26.92
64916;BMP280;51427;-27.442;153.014;2023-03-20T08:26:53;101877.66;;;26.92
64916;BMP280;51427;-27.442;153.014;2023-03-20T08:29:20;101882.28;;;26.89
64916;BMP280;51427;-27.442;153.014;2023-03-20T08:31:47;101876.44;;;26.87
64916;BMP280;51427;-27.442;153.014;2023-03-20T08:34:15;101888.75;;;26.83
64916;BMP280;51427;-27.442;153.014;2023-03-20T08:36:42;101895.50;;;26.84
64916;BMP280;51427;-27.442;153.014;2023-03-20T08:39:10;101894.69;;;26.84
64916;BMP280;51427;-27.442;153.014;2023-03-20T08:41:37;101890.38;;;26.84
64916;BMP280;51427;-27.442;153.014;2023-03-20T08:44:05;101902.41;;;26.84
64916;BMP280;51427;-27.442;153.014;2023-03-20T08:46:33;101903.34;;;26.83
64916;BMP280;51427;-27.442;153.014;2023-03-20T08:49:00;101898.22;;;26.83
64916;BMP280;51427;-27.442;153.014;2023-03-20T08:51:27;101921.59;;;26.80
64916;BMP280;51427;-27.442;153.014;2023-03-20T08:53:54;101928.50;;;26.79
64916;BMP280;51427;-27.442;153.014;2023-03-20T08:56:22;101931.50;;;26.75
64916;BMP280;51427;-27.442;153.014;2023-03-20T08:58:49;101936.34;;;26.78
64916;BMP280;51427;-27.442;153.014;2023-03-20T09:01:18;101942.59;;;26.75
64916;BMP280;51427;-27.442;153.014;2023-03-20T09:03:46;101949.47;;;26.75
64916;BMP280;51427;-27.442;153.014;2023-03-20T09:06:13;101954.22;;;26.70
64916;BMP280;51427;-27.442;153.014;2023-03-20T09:08:41;101962.72;;;26.70
64916;BMP280;51427;-27.442;153.014;2023-03-20T09:11:08;101963.56;;;26.71
64916;BMP280;51427;-27.442;153.014;2023-03-20T09:13:35;101967.06;;;26.60
64916;BMP280;51427;-27.442;153.014;2023-03-20T09:16:03;101975.56;;;26.61
64916;BMP280;51427;-27.442;153.014;2023-03-20T09:20:56;101995.31;;;26.51
64916;BMP280;51427;-27.442;153.014;2023-03-20T09:23:23;102001.41;;;26.50
64916;BMP280;51427;-27.442;153.014;2023-03-20T09:25:50;102012.63;;;26.49
64916;BMP280;51427;-27.442;153.014;2023-03-20T09:28:18;102009.94;;;26.50
64916;BMP280;51427;-27.442;153.014;2023-03-20T09:30:45;102008.03;;;26.43
64916;BMP280;51427;-27.442;153.014;2023-03-20T09:33:12;102015.19;;;26.40
64916;BMP280;51427;-27.442;153.014;2023-03-20T09:35:40;102015.47;;;26.37
64916;BMP280;51427;-27.442;153.014;2023-03-20T09:38:07;102031.00;;;26.35
64916;BMP280;51427;-27.442;153.014;2023-03-20T09:40:53;102042.34;;;26.33
64916;BMP280;51427;-27.442;153.014;2023-03-20T09:46:10;102047.34;;;26.34
64916;BMP280;51427;-27.442;153.014;2023-03-20T09:48:46;102048.72;;;26.38
64916;BMP280;51427;-27.442;153.014;2023-03-20T09:51:35;102045.44;;;26.36
64916;BMP280;51427;-27.442;153.014;2023-03-20T09:54:10;102067.47;;;26.29
64916;BMP280;51427;-27.442;153.014;2023-03-20T09:56:39;102068.25;;;26.30
64916;BMP280;51427;-27.442;153.014;2023-03-20T09:59:07;102068.41;;;26.28
64916;BMP280;51427;-27.442;153.014;2023-03-20T10:04:11;102083.13;;;26.26
64916;BMP280;51427;-27.442;153.014;2023-03-20T10:06:38;102076.59;;;26.22
64916;BMP280;51427;-27.442;153.014;2023-03-20T10:09:20;102085.25;;;26.21
64916;BMP280;51427;-27.442;153.014;2023-03-20T10:17:17;102084.84;;;26.16
64916;BMP280;51427;-27.442;153.014;2023-03-20T10:19:51;102095.09;;;26.16
64916;BMP280;51427;-27.442;153.014;2023-03-20T10:22:43;102096.59;;;26.19
64916;BMP280;51427;-27.442;153.014;2023-03-20T10:25:31;102096.84;;;26.16
64916;BMP280;51427;-27.442;153.014;2023-03-20T10:28:10;102097.94;;;26.13
64916;BMP280;51427;-27.442;153.014;2023-03-20T10:30:48;102097.94;;;26.13
64916;BMP280;51427;-27.442;153.014;2023-03-20T10:41:27;102111.69;;;26.12
64916;BMP280;51427;-27.442;153.014;2023-03-20T10:43:56;102110.91;;;26.21
64916;BMP280;51427;-27.442;153.014;2023-03-20T10:46:56;102117.09;;;26.09
64916;BMP280;51427;-27.442;153.014;2023-03-20T10:51:56;102123.69;;;26.02
64916;BMP280;51427;-27.442;153.014;2023-03-20T10:54:29;102122.59;;;26.05
64916;BMP280;51427;-27.442;153.014;2023-03-20T10:56:59;102114.69;;;26.17
64916;BMP280;51427;-27.442;153.014;2023-03-20T11:02:04;102114.06;;;25.95
64916;BMP280;51427;-27.442;153.014;2023-03-20T11:04:34;102109.22;;;26.01
64916;BMP280;51427;-27.442;153.014;2023-03-20T11:07:31;102107.63;;;26.10
64916;BMP280;51427;-27.442;153.014;2023-03-20T11:12:34;102111.13;;;25.99
64916;BMP280;51427;-27.442;153.014;2023-03-20T11:15:25;102109.78;;;26.05
64916;BMP280;51427;-27.442;153.014;2023-03-20T11:18:04;102115.13;;;25.93
64916;BMP280;51427;-27.442;153.014;2023-03-20T11:20:38;102108.81;;;25.97
64916;BMP280;51427;-27.442;153.014;2023-03-20T11:23:15;102113.41;;;25.93
64916;BMP280;51427;-27.442;153.014;2023-03-20T11:31:00;102110.84;;;25.93
64916;BMP280;51427;-27.442;153.014;2023-03-20T11:33:29;102111.38;;;25.97
64916;BMP280;51427;-27.442;153.014;2023-03-20T11:35:57;102111.34;;;25.87
64916;BMP280;51427;-27.442;153.014;2023-03-20T11:38:25;102108.22;;;25.84
64916;BMP280;51427;-27.442;153.014;2023-03-20T11:40:56;102109.72;;;25.86
64916;BMP280;51427;-27.442;153.014;2023-03-20T11:43:27;102117.78;;;25.82
64916;BMP280;51427;-27.442;153.014;2023-03-20T11:45:56;102116.72;;;25.84
64916;BMP280;51427;-27.442;153.014;2023-03-20T11:48:46;102124.56;;;25.83
64916;BMP280;51427;-27.442;153.014;2023-03-20T11:51:21;102119.66;;;25.80
64916;BMP280;51427;-27.442;153.014;2023-03-20T11:56:34;102123.56;;;25.74
64916;BMP280;51427;-27.442;153.014;2023-03-20T12:01:47;102124.13;;;25.78
64916;BMP280;51427;-27.442;153.014;2023-03-20T12:04:27;102123.25;;;25.68
64916;BMP280;51427;-27.442;153.014;2023-03-20T12:07:13;102121.13;;;25.73
64916;BMP280;51427;-27.442;153.014;2023-03-20T12:09:47;102123.44;;;25.76
64916;BMP280;51427;-27.442;153.014;2023-03-20T12:15:31;102118.31;;;25.76
64916;BMP280;51427;-27.442;153.014;2023-03-20T12:18:24;102118.00;;;25.69
64916;BMP280;51427;-27.442;153.014;2023-03-20T12:23:52;102123.66;;;25.63
64916;BMP280;51427;-27.442;153.014;2023-03-20T12:32:03;102118.63;;;25.62
64916;BMP280;51427;-27.442;153.014;2023-03-20T12:34:45;102115.59;;;25.57
64916;BMP280;51427;-27.442;153.014;2023-03-20T12:37:14;102109.94;;;25.53
64916;BMP280;51427;-27.442;153.014;2023-03-20T12:39:55;102107.25;;;25.55
64916;BMP280;51427;-27.442;153.014;2023-03-20T12:50:36;102106.81;;;25.50
64916;BMP280;51427;-27.442;153.014;2023-03-20T12:56:35;102109.94;;;25.53
64916;BMP280;51427;-27.442;153.014;2023-03-20T12:59:26;102107.19;;;25.46
64916;BMP280;51427;-27.442;153.014;2023-03-20T13:04:49;102108.44;;;25.51
64916;BMP280;51427;-27.442;153.014;2023-03-20T13:07:24;102103.00;;;25.45
64916;BMP280;51427;-27.442;153.014;2023-03-20T13:20:48;102102.69;;;25.38
64916;BMP280;51427;-27.442;153.014;2023-03-20T13:23:33;102105.72;;;25.43
64916;BMP280;51427;-27.442;153.014;2023-03-20T13:29:14;102111.34;;;25.37
64916;BMP280;51427;-27.442;153.014;2023-03-20T13:31:50;102106.19;;;25.37
64916;BMP280;51427;-27.442;153.014;2023-03-20T13:37:18;102105.25;;;25.38
64916;BMP280;51427;-27.442;153.014;2023-03-20T13:39:51;102104.13;;;25.31
64916;BMP280;51427;-27.442;153.014;2023-03-20T13:42:22;102100.66;;;25.32
64916;BMP280;51427;-27.442;153.014;2023-03-20T13:45:00;102101.34;;;25.34
64916;BMP280;51427;-27.442;153.014;2023-03-20T13:47:31;102100.78;;;25.31
64916;BMP280;51427;-27.442;153.014;2023-03-20T13:53:33;102102.50;;;25.30
64916;BMP280;51427;-27.442;153.014;2023-03-20T13:59:19;102096.41;;;25.22
64916;BMP280;51427;-27.442;153.014;2023-03-20T14:04:17;102085.31;;;25.21
64916;BMP280;51427;-27.442;153.014;2023-03-20T14:09:30;102083.66;;;25.11
64916;BMP280;51427;-27.442;153.014;2023-03-20T14:12:02;102086.88;;;25.13
64916;BMP280;51427;-27.442;153.014;2023-03-20T14:19:49;102080.53;;;25.07
64916;BMP280;51427;-27.442;153.014;2023-03-20T14:22:22;102089.97;;;24.96
64916;BMP280;51427;-27.442;153.014;2023-03-20T14:25:19;102091.94;;;25.04
64916;BMP280;51427;-27.442;153.014;2023-03-20T14:27:58;102083.47;;;25.03
64916;BMP280;51427;-27.442;153.014;2023-03-20T14:49:04;102056.47;;;24.88
64916;BMP280;51427;-27.442;153.014;2023-03-20T14:51:43;102058.16;;;24.78
64916;BMP280;51427;-27.442;153.014;2023-03-20T14:54:30;102051.53;;;24.76
64916;BMP280;51427;-27.442;153.014;2023-03-20T14:57:14;102046.66;;;24.73
64916;BMP280;51427;-27.442;153.014;2023-03-20T14:59:43;102027.69;;;24.75
64916;BMP280;51427;-27.442;153.014;2023-03-20T15:02:35;102042.38;;;24.73
64916;BMP280;51427;-27.442;153.014;2023-03-20T15:05:04;102038.66;;;24.66
64916;BMP280;51427;-27.442;153.014;2023-03-20T15:07:35;102027.69;;;24.75
64916;BMP280;51427;-27.442;153.014;2023-03-20T15:10:05;102021.34;;;24.59
64916;BMP280;51427;-27.442;153.014;2023-03-20T15:12:37;102031.81;;;24.56
64916;BMP280;51427;-27.442;153.014;2023-03-20T15:15:07;102031.69;;;24.58
64916;BMP280;51427;-27.442;153.014;2023-03-20T15:17:48;102020.94;;;24.74
64916;BMP280;51427;-27.442;153.014;2023-03-20T15:22:57;102022.31;;;24.58
64916;BMP280;51427;-27.442;153.014;2023-03-20T15:25:42;102005.31;;;24.57
64916;BMP280;51427;-27.442;153.014;2023-03-20T15:30:49;102016.28;;;24.48
64916;BMP280;51427;-27.442;153.014;2023-03-20T15:33:26;102018.72;;;24.50
64916;BMP280;51427;-27.442;153.014;2023-03-20T15:35:55;102003.81;;;24.55
64916;BMP280;51427;-27.442;153.014;2023-03-20T15:38:29;102011.03;;;24.50
64916;BMP280;51427;-27.442;153.014;2023-03-20T15:40:58;102008.63;;;24.37
64916;BMP280;51427;-27.442;153.014;2023-03-20T15:43:26;102001.56;;;24.41
64916;BMP280;51427;-27.442;153.014;2023-03-20T15:45:55;102004.59;;;24.35
64916;BMP280;51427;-27.442;153.014;2023-03-20T15:48:24;102000.84;;;24.39
64916;BMP280;51427;-27.442;153.014;2023-03-20T15:51:01;102001.91;;;24.36
64916;BMP280;51427;-27.442;153.014;2023-03-20T15:53:37;102003.75;;;24.34
64916;BMP280;51427;-27.442;153.014;2023-03-20T15:56:11;101996.09;;;24.34
64916;BMP280;51427;-27.442;153.014;2023-03-20T15:58:40;101984.25;;;24.33
64916;BMP280;51427;-27.442;153.014;2023-03-20T16:01:08;101984.69;;;24.38
64916;BMP280;51427;-27.442;153.014;2023-03-20T16:03:41;101984.94;;;24.35
64916;BMP280;51427;-27.442;153.014;2023-03-20T16:06:11;101990.28;;;24.32
64916;BMP280;51427;-27.442;153.014;2023-03-20T16:08:41;101990.59;;;24.39
64916;BMP280;51427;-27.442;153.014;2023-03-20T16:11:15;101986.44;;;24.38
64916;BMP280;51427;-27.442;153.014;2023-03-20T16:13:46;101979.75;;;24.46
64916;BMP280;51427;-27.442;153.014;2023-03-20T16:16:22;101978.72;;;24.49
64916;BMP280;51427;-27.442;153.014;2023-03-20T16:18:49;101972.53;;;24.51
64916;BMP280;51427;-27.442;153.014;2023-03-20T16:21:28;101981.97;;;24.51
64916;BMP280;51427;-27.442;153.014;2023-03-20T16:23:58;101994.19;;;24.47
64916;BMP280;51427;-27.442;153.014;2023-03-20T16:26:26;101989.44;;;24.01
64916;BMP280;51427;-27.442;153.014;2023-03-20T16:28:58;102010.38;;;23.73